Terminal Aerodrome Forecast
Issued by NWS

Home | Current Version | Previous Version | Text Only | Print | Product List | Glossary On
Versions: 1 2 3 4 5 6 7 8 9 10 11 12 13 14 15 16 17 18 19 20 21 22 23 24 25 26 27 28 29 30 31 32 33 34 35 36 37 38 39 40 41 42 43 44 45 46
000
FTUS43 KMKX 242133 AAH
TAFENW
TAF AMD
KENW 242133Z 2422/2518 25012KT P6SM SCT020 BKN100
     FM242300 24009KT P6SM SCT020 BKN050 BKN100
     FM250800 26006KT 6SM BR VCTS SCT020CB BKN050
     FM251300 29004KT P6SM BKN050
     FM251700 30008KT P6SM SCT030=

USA.gov is the U.S. government's official web portal to all federal, state and local government web resources and services.